createdAt,value
2023-03-15T00:02:07.346Z,18.23
2023-03-15T00:07:09.118Z,13.20
2023-03-15T00:12:12.263Z,6.22
2023-03-15T00:17:13.898Z,14.05
2023-03-15T00:22:15.686Z,10.73
2023-03-15T00:27:17.331Z,10.52
2023-03-15T00:32:18.950Z,8.63
2023-03-15T00:37:21.602Z,12.25
2023-03-15T00:42:27.531Z,10.00
2023-03-15T00:47:29.200Z,14.52
2023-03-15T00:52:36.073Z,8.43
2023-03-15T00:57:37.695Z,9.90
2023-03-15T01:02:39.634Z,15.68
2023-03-15T01:07:41.354Z,8.85
2023-03-15T01:12:43.118Z,13.90
2023-03-15T01:17:44.733Z,14.27
2023-03-15T01:22:46.527Z,9.23
2023-03-15T01:27:49.564Z,11.77
2023-03-15T01:32:51.227Z,12.00
2023-03-15T01:37:53.237Z,12.43
2023-03-15T01:43:04.529Z,12.68
2023-03-15T01:48:06.516Z,11.23
2023-03-15T01:53:08.535Z,10.88
2023-03-15T01:58:12.727Z,11.90
2023-03-15T02:03:21.692Z,7.20
2023-03-15T02:08:29.316Z,9.32
2023-03-15T02:13:33.619Z,9.55
2023-03-15T02:18:41.294Z,7.43
2023-03-15T02:23:47.294Z,5.95
2023-03-15T02:28:50.117Z,16.10
2023-03-15T02:33:57.455Z,10.90
2023-03-15T02:38:59.490Z,9.98
2023-03-15T02:44:06.498Z,11.80
2023-03-15T02:49:09.040Z,8.70
2023-03-15T02:54:10.760Z,8.30
2023-03-15T02:59:12.913Z,16.20
2023-03-15T03:04:14.818Z,11.23
2023-03-15T03:09:16.972Z,12.02
2023-03-15T03:14:18.759Z,8.27
2023-03-15T03:19:25.618Z,7.13
2023-03-15T03:24:27.690Z,13.43
2023-03-15T03:29:29.892Z,8.77
2023-03-15T03:34:35.977Z,10.50
2023-03-15T03:39:37.654Z,8.93
2023-03-15T03:44:40.541Z,20.27
2023-03-15T03:49:42.938Z,8.85
2023-03-15T03:54:44.547Z,3.58
2023-03-15T03:59:46.362Z,13.95
2023-03-15T04:04:50.434Z,7.38
2023-03-15T04:09:55.095Z,8.45
2023-03-15T04:14:56.874Z,6.20
2023-03-15T04:20:02.069Z,10.02
2023-03-15T04:25:07.384Z,7.63
2023-03-15T04:30:29.703Z,4.18
2023-03-15T04:35:47.309Z,8.13
2023-03-15T04:41:11.059Z,14.68
2023-03-15T04:46:34.021Z,18.42
2023-03-15T04:52:11.198Z,15.18
2023-03-15T04:57:32.619Z,8.90
2023-03-15T05:03:06.038Z,9.85
2023-03-15T05:08:20.967Z,14.57
2023-03-15T05:13:41.020Z,10.05
2023-03-15T05:18:51.158Z,6.38
2023-03-15T05:24:09.594Z,5.72
2023-03-15T05:29:27.574Z,8.38
2023-03-15T05:34:38.345Z,8.88
2023-03-15T05:39:52.759Z,9.23
2023-03-15T05:45:14.786Z,7.80
2023-03-15T05:50:39.430Z,13.73
2023-03-15T05:55:59.940Z,13.77
2023-03-15T06:01:21.291Z,7.60
2023-03-15T06:06:37.089Z,6.97
2023-03-15T06:11:41.902Z,13.00
2023-03-15T06:16:47.372Z,9.52
2023-03-15T06:21:49.177Z,6.05
2023-03-15T06:27:02.771Z,6.28
2023-03-15T06:32:05.467Z,13.27
2023-03-15T06:37:09.359Z,8.57
2023-03-15T06:42:13.853Z,9.65
2023-03-15T06:47:15.622Z,6.30
2023-03-15T06:52:18.053Z,14.00
2023-03-15T06:57:19.734Z,11.57
2023-03-15T07:02:21.379Z,8.95
2023-03-15T07:07:22.996Z,7.85
2023-03-15T07:12:24.674Z,14.82
2023-03-15T07:17:26.351Z,10.25
2023-03-15T07:22:28.058Z,8.25
2023-03-15T07:27:30.295Z,7.55
2023-03-15T07:32:32.889Z,5.55
2023-03-15T07:37:34.818Z,6.70
2023-03-15T07:42:37.337Z,7.35
2023-03-15T07:47:38.974Z,11.02
2023-03-15T07:52:41.045Z,8.40
2023-03-15T07:57:42.672Z,16.45
2023-03-15T08:02:44.796Z,10.07
2023-03-15T08:07:48.276Z,9.45
2023-03-15T08:12:49.927Z,10.02
2023-03-15T08:17:51.618Z,7.93
2023-03-15T08:22:53.417Z,5.95
2023-03-15T08:27:55.139Z,6.45
2023-03-15T08:32:56.839Z,9.13
2023-03-15T08:37:58.510Z,9.40
2023-03-15T08:43:00.169Z,10.23
2023-03-15T08:48:02.281Z,10.73
2023-03-15T08:53:03.915Z,6.65
2023-03-15T08:58:05.597Z,15.27
2023-03-15T09:03:07.222Z,9.95
2023-03-15T09:08:08.914Z,10.45
2023-03-15T09:13:11.205Z,13.95
2023-03-15T09:18:12.896Z,9.60
2023-03-15T09:23:14.931Z,8.13
2023-03-15T09:28:16.608Z,17.02
2023-03-15T09:33:18.490Z,5.15
2023-03-15T09:38:22.158Z,13.02
2023-03-15T09:43:35.791Z,10.65
2023-03-15T09:48:59.938Z,14.80
2023-03-15T09:54:20.462Z,9.20
2023-03-15T09:59:34.748Z,6.53
2023-03-15T10:04:40.607Z,9.68
2023-03-15T10:09:43.566Z,15.15
2023-03-15T10:15:22.300Z,10.73
2023-03-15T10:20:34.285Z,7.50
2023-03-15T10:25:37.562Z,7.00
2023-03-15T10:30:44.749Z,13.90
2023-03-15T10:35:46.470Z,9.73
2023-03-15T10:40:49.380Z,8.77
2023-03-15T10:46:11.545Z,6.28
2023-03-15T10:51:27.112Z,8.23
2023-03-15T10:56:35.323Z,5.65
2023-03-15T11:01:37.612Z,9.57
2023-03-15T11:06:49.427Z,3.97
2023-03-15T11:11:53.303Z,8.75
2023-03-15T11:16:57.046Z,7.75
2023-03-15T11:22:01.379Z,7.05
2023-03-15T11:27:09.900Z,4.55
2023-03-15T11:32:15.676Z,7.45
2023-03-15T11:37:25.526Z,5.35
2023-03-15T11:42:36.866Z,6.35
2023-03-15T11:47:54.859Z,7.95
2023-03-15T11:53:02.930Z,5.20
2023-03-15T11:58:42.508Z,5.90
2023-03-15T12:03:45.110Z,6.82
2023-03-15T12:08:52.869Z,7.43
2023-03-15T12:13:57.520Z,6.80
2023-03-15T12:19:01.403Z,6.30
2023-03-15T12:24:06.712Z,3.88
2023-03-15T12:29:17.912Z,4.95
2023-03-15T12:34:31.851Z,13.98
2023-03-15T12:39:40.846Z,7.90
2023-03-15T12:44:43.356Z,3.92
2023-03-15T12:49:46.245Z,5.45
2023-03-15T12:54:54.730Z,5.47
2023-03-15T12:59:59.071Z,5.40
2023-03-15T13:05:13.877Z,3.45
2023-03-15T13:10:31.135Z,2.70
2023-03-15T13:15:57.328Z,2.80
2023-03-15T13:21:15.592Z,6.93
2023-03-15T13:26:21.587Z,5.63
2023-03-15T13:31:25.377Z,5.80
2023-03-15T13:36:44.931Z,4.40
2023-03-15T13:41:47.839Z,6.53
2023-03-15T13:46:50.934Z,5.97
2023-03-15T13:51:53.459Z,4.70
2023-03-15T13:57:12.991Z,4.93
2023-03-15T14:02:21.066Z,2.40
2023-03-15T14:07:46.603Z,8.13
2023-03-15T14:12:49.753Z,5.53
2023-03-15T14:17:57.620Z,3.97
2023-03-15T14:23:01.478Z,6.45
2023-03-15T14:28:05.546Z,6.78
2023-03-15T14:33:08.853Z,4.40
2023-03-15T14:38:23.584Z,3.50
2023-03-15T14:43:25.203Z,10.95
2023-03-15T14:48:28.944Z,2.28
2023-03-15T14:53:35.814Z,8.68
2023-03-15T14:58:37.589Z,4.03
2023-03-15T15:03:53.635Z,8.18
2023-03-15T15:08:58.869Z,4.55
2023-03-15T15:14:00.880Z,8.70
2023-03-15T15:19:02.744Z,5.60
2023-03-15T15:24:11.596Z,3.70
2023-03-15T15:29:14.935Z,2.20
2023-03-15T15:34:16.552Z,6.13
2023-03-15T15:39:23.736Z,6.78
2023-03-15T15:44:26.094Z,3.47
2023-03-15T15:49:28.217Z,2.47
2023-03-15T15:54:35.778Z,1.60
2023-03-15T15:59:37.454Z,2.57
2023-03-15T16:04:41.711Z,3.05
2023-03-15T16:09:46.407Z,3.03
2023-03-15T16:14:48.116Z,3.40
2023-03-15T16:19:50.650Z,5.50
2023-03-15T16:24:54.805Z,2.60
2023-03-15T16:29:56.588Z,3.30
2023-03-15T16:34:58.220Z,3.53
2023-03-15T16:40:01.662Z,2.33
2023-03-15T16:45:12.500Z,5.03
2023-03-15T16:50:14.640Z,6.97
2023-03-15T16:55:19.991Z,4.35
2023-03-15T17:00:22.243Z,7.47
2023-03-15T17:05:24.884Z,5.75
2023-03-15T17:10:32.733Z,4.32
2023-03-15T17:15:34.360Z,5.97
2023-03-15T17:20:35.984Z,3.85
2023-03-15T17:25:38.895Z,5.75
2023-03-15T17:30:41.051Z,4.47
2023-03-15T17:35:54.022Z,8.43
2023-03-15T17:40:55.992Z,4.20
2023-03-15T17:45:57.713Z,6.10
2023-03-15T17:50:59.385Z,11.10
2023-03-15T17:56:01.060Z,4.10
2023-03-15T18:01:04.514Z,6.57
2023-03-15T18:06:06.569Z,7.13
2023-03-15T18:11:17.200Z,5.07
2023-03-15T18:16:18.972Z,10.27
2023-03-15T18:21:24.322Z,10.55
2023-03-15T18:26:25.973Z,5.13
2023-03-15T18:31:27.667Z,5.72
2023-03-15T18:36:29.902Z,4.78
2023-03-15T18:41:31.544Z,7.13
2023-03-15T18:46:33.424Z,4.38
2023-03-15T18:51:36.963Z,6.70
2023-03-15T18:56:38.657Z,6.40
2023-03-15T19:01:40.339Z,5.90
2023-03-15T19:06:41.978Z,9.48
2023-03-15T19:11:43.620Z,7.43
2023-03-15T19:16:45.389Z,7.47
2023-03-15T19:21:47.169Z,7.95
2023-03-15T19:26:48.813Z,9.15
2023-03-15T19:31:50.516Z,11.07
2023-03-15T19:36:52.301Z,8.57
2023-03-15T19:41:54.112Z,7.40
2023-03-15T19:46:56.412Z,15.45
2023-03-15T19:51:58.045Z,14.82
2023-03-15T19:57:00.946Z,17.73
2023-03-15T20:02:02.695Z,13.48
2023-03-15T20:07:04.903Z,12.73
2023-03-15T20:12:07.757Z,16.67
2023-03-15T20:17:09.399Z,11.82
2023-03-15T20:22:11.027Z,18.85
2023-03-15T20:27:13.343Z,17.40
2023-03-15T20:32:15.029Z,17.48
2023-03-15T20:37:16.729Z,18.17
2023-03-15T20:42:19.488Z,14.67
2023-03-15T20:47:21.136Z,13.50
2023-03-15T20:52:22.767Z,17.17
2023-03-15T20:57:24.422Z,18.35
2023-03-15T21:02:26.049Z,14.85
2023-03-15T21:07:27.713Z,12.00
2023-03-15T21:12:30.226Z,15.82
2023-03-15T21:17:31.968Z,19.30
2023-03-15T21:22:33.862Z,18.00
2023-03-15T21:27:35.591Z,18.35
2023-03-15T21:32:38.373Z,16.17
2023-03-15T21:37:40.323Z,19.95
2023-03-15T21:42:43.582Z,20.52
2023-03-15T21:47:47.060Z,15.95
2023-03-15T21:52:49.014Z,15.48
2023-03-15T21:57:51.853Z,10.93
2023-03-15T22:02:55.626Z,10.80
2023-03-15T22:07:57.434Z,9.30
2023-03-15T22:12:59.062Z,14.65
2023-03-15T22:18:02.274Z,10.30
2023-03-15T22:23:04.472Z,11.27
2023-03-15T22:28:06.529Z,11.73
2023-03-15T22:33:08.788Z,17.77
2023-03-15T22:38:10.585Z,20.55
2023-03-15T22:43:12.199Z,11.88
2023-03-15T22:48:13.833Z,19.63
2023-03-15T22:53:15.437Z,14.98
2023-03-15T22:58:17.045Z,21.55
2023-03-15T23:03:19.400Z,12.48
2023-03-15T23:08:22.818Z,20.02
2023-03-15T23:13:24.621Z,17.30
2023-03-15T23:18:26.253Z,12.27
2023-03-15T23:23:27.862Z,14.70
2023-03-15T23:28:29.491Z,17.65
2023-03-15T23:33:34.250Z,19.05
2023-03-15T23:38:35.912Z,14.35
2023-03-15T23:43:37.523Z,15.43
2023-03-15T23:48:39.154Z,17.90
2023-03-15T23:53:40.764Z,16.30
2023-03-15T23:58:42.394Z,16.90
